Stevensville, Maryland
Current Conditions -  °F | °C
As of 2:54 AM on Sunday 26 Oct 2014 (Local Time) from KNAK Reporting Station
Few Clouds Few Clouds  
Wind Chill: 57°   Ceiling: Unl
Heat Index: 57°   Visibility: 10mi
Dew Point: 45°   Wind: 3mph
Humidity: 64%   Direction: 270°W
Pressure: 29.66"   Gusts: NA
Location:  38.98°N, 76.31°W
Report Text: KNAK 260654Z AUTO 27003KT 10SM FEW060 14/07 A2966 RMK AO2 SLP046 T01390072
Loading
Personal Weather Stations






























Interactive Weather Map
Tropical Storm Tracking
New forecast layout! Learn more

10-Day Weather Forecast

Advertisements
Track Severe Weather on mobile